createdAt,value
2022-09-28T00:00:46.915Z,75.12
2022-09-28T00:03:13.767Z,75.77
2022-09-28T00:05:40.296Z,76.83
2022-09-28T00:08:06.725Z,74.77
2022-09-28T00:10:33.201Z,76.30
2022-09-28T00:13:01.386Z,76.85
2022-09-28T00:15:27.876Z,76.69
2022-09-28T00:17:54.365Z,76.84
2022-09-28T00:20:22.730Z,77.69
2022-09-28T00:22:49.294Z,78.18
2022-09-28T00:25:16.918Z,78.50
2022-09-28T00:27:43.407Z,78.97
2022-09-28T00:30:10.291Z,78.72
2022-09-28T00:32:36.722Z,79.87
2022-09-28T00:35:03.260Z,79.88
2022-09-28T00:37:29.760Z,79.91
2022-09-28T00:39:56.247Z,80.32
2022-09-28T00:42:24.858Z,80.26
2022-09-28T00:44:53.719Z,80.57
2022-09-28T00:47:49.792Z,81.26
2022-09-28T00:50:25.446Z,80.89
2022-09-28T00:53:26.602Z,79.39
2022-09-28T00:56:00.488Z,78.92
2022-09-28T00:58:30.079Z,79.67
2022-09-28T01:00:58.923Z,80.49
2022-09-28T01:03:27.765Z,79.97
2022-09-28T01:05:57.207Z,80.93
2022-09-28T01:08:27.183Z,80.97
2022-09-28T01:10:53.675Z,81.31
2022-09-28T01:13:22.148Z,80.12
2022-09-28T01:16:13.017Z,80.90
2022-09-28T01:18:51.739Z,81.69
2022-09-28T01:21:23.647Z,82.55
2022-09-28T01:23:52.961Z,83.40
2022-09-28T01:26:25.397Z,83.12
2022-09-28T01:29:04.593Z,82.48
2022-09-28T01:31:35.690Z,82.60
2022-09-28T01:34:12.159Z,82.85
2022-09-28T01:37:00.916Z,82.53
2022-09-28T01:39:38.249Z,82.55
2022-09-28T01:42:10.068Z,83.20
2022-09-28T01:44:41.624Z,83.22
2022-09-28T01:47:13.022Z,82.73
2022-09-28T01:49:45.722Z,83.21
2022-09-28T01:52:33.858Z,82.48
2022-09-28T01:55:35.871Z,82.27
2022-09-28T01:58:11.029Z,82.79
2022-09-28T02:00:41.790Z,82.63
2022-09-28T02:03:57.972Z,82.95
2022-09-28T02:06:38.836Z,83.21
2022-09-28T02:09:12.699Z,83.11
2022-09-28T02:11:43.245Z,83.23
2022-09-28T02:14:12.268Z,83.64
2022-09-28T02:16:43.847Z,83.75
2022-09-28T02:19:18.225Z,83.48
2022-09-28T02:22:03.097Z,83.45
2022-09-28T02:24:38.795Z,82.90
2022-09-28T02:27:34.235Z,83.84
2022-09-28T02:30:01.417Z,84.14
2022-09-28T02:32:31.135Z,83.99
2022-09-28T02:34:57.744Z,83.82
2022-09-28T02:37:24.418Z,84.06
2022-09-28T02:39:50.861Z,83.86
2022-09-28T02:42:25.702Z,83.72
2022-09-28T02:45:21.745Z,83.19
2022-09-28T02:48:41.242Z,83.24
2022-09-28T02:51:21.129Z,83.11
2022-09-28T02:54:02.535Z,83.36
2022-09-28T02:56:54.430Z,82.86
2022-09-28T02:59:29.694Z,81.66
2022-09-28T03:02:11.458Z,81.93
2022-09-28T03:05:04.071Z,81.82
2022-09-28T03:07:38.522Z,82.02
2022-09-28T03:10:05.105Z,81.03
2022-09-28T03:12:33.256Z,80.89
2022-09-28T03:15:21.247Z,81.61
2022-09-28T03:17:47.751Z,80.07
2022-09-28T03:20:14.202Z,81.23
2022-09-28T03:22:40.783Z,81.52
2022-09-28T03:25:08.643Z,82.15
2022-09-28T03:27:35.186Z,81.91
2022-09-28T03:30:02.045Z,80.91
2022-09-28T03:32:28.443Z,81.29
2022-09-28T03:34:55.850Z,81.71
2022-09-28T03:37:22.342Z,81.54
2022-09-28T03:39:48.855Z,81.22
2022-09-28T03:42:15.295Z,81.28
2022-09-28T03:44:41.739Z,80.36
2022-09-28T03:47:08.956Z,81.00
2022-09-28T03:49:35.729Z,81.46
2022-09-28T03:52:03.138Z,80.98
2022-09-28T03:54:29.950Z,79.81
2022-09-28T03:56:56.535Z,80.57
2022-09-28T03:59:23.012Z,80.49
2022-09-28T04:01:50.546Z,80.16
2022-09-28T04:04:17.386Z,81.72
2022-09-28T04:06:44.140Z,81.39
2022-09-28T04:09:12.280Z,79.49
2022-09-28T04:11:59.808Z,79.38
2022-09-28T04:14:25.308Z,80.15
2022-09-28T04:16:54.846Z,80.38
2022-09-28T04:19:22.178Z,80.03
2022-09-28T04:21:50.987Z,80.36
2022-09-28T04:24:18.360Z,80.05
2022-09-28T04:26:44.812Z,81.66
2022-09-28T04:29:17.518Z,82.38
2022-09-28T04:31:49.778Z,80.96
2022-09-28T04:34:23.189Z,82.39
2022-09-28T04:36:50.080Z,81.48
2022-09-28T04:39:18.254Z,83.16
2022-09-28T04:41:47.928Z,83.84
2022-09-28T04:44:14.367Z,84.21
2022-09-28T04:46:40.822Z,85.46
2022-09-28T04:49:07.227Z,86.54
2022-09-28T04:51:33.736Z,86.50
2022-09-28T04:54:00.178Z,86.83
2022-09-28T04:56:26.808Z,86.57
2022-09-28T04:58:53.308Z,87.22
2022-09-28T05:01:23.423Z,88.01
2022-09-28T05:03:51.125Z,88.12
2022-09-28T05:06:17.910Z,88.22
2022-09-28T05:08:46.916Z,87.81
2022-09-28T05:11:14.338Z,87.12
2022-09-28T05:13:43.487Z,87.92
2022-09-28T05:16:10.615Z,87.21
2022-09-28T05:18:37.198Z,87.71
2022-09-28T05:21:04.673Z,87.05
2022-09-28T05:23:31.120Z,87.83
2022-09-28T05:26:01.782Z,88.45
2022-09-28T05:28:30.956Z,88.81
2022-09-28T05:31:01.684Z,88.26
2022-09-28T05:33:28.926Z,89.19
2022-09-28T05:36:00.776Z,89.29
2022-09-28T05:38:27.806Z,89.61
2022-09-28T05:40:54.317Z,88.35
2022-09-28T05:43:20.849Z,89.65
2022-09-28T05:45:50.423Z,90.97
2022-09-28T05:48:20.901Z,90.72
2022-09-28T05:50:52.327Z,90.61
2022-09-28T05:53:19.135Z,91.20
2022-09-28T05:55:45.647Z,89.91
2022-09-28T05:58:12.205Z,89.79
2022-09-28T06:00:38.692Z,89.91
2022-09-28T06:03:09.403Z,90.66
2022-09-28T06:05:36.836Z,90.32
2022-09-28T06:08:05.235Z,90.10
2022-09-28T06:10:32.561Z,89.36
2022-09-28T06:13:00.623Z,90.59
2022-09-28T06:15:29.862Z,91.03
2022-09-28T06:18:01.821Z,90.73
2022-09-28T06:20:30.058Z,90.38
2022-09-28T06:22:56.601Z,90.28
2022-09-28T06:25:23.985Z,88.80
2022-09-28T06:28:05.271Z,88.21
2022-09-28T06:30:34.386Z,89.32
2022-09-28T06:33:02.299Z,88.80
2022-09-28T06:35:30.445Z,89.29
2022-09-28T06:37:58.239Z,88.99
2022-09-28T06:40:25.139Z,89.08
2022-09-28T06:42:59.499Z,89.37
2022-09-28T06:45:27.820Z,89.88
2022-09-28T06:47:59.415Z,89.88
2022-09-28T06:50:39.727Z,90.47
2022-09-28T06:53:09.315Z,90.31
2022-09-28T06:55:39.426Z,90.22
2022-09-28T06:58:09.768Z,90.83
2022-09-28T07:00:38.178Z,89.77
2022-09-28T07:03:07.339Z,88.87
2022-09-28T07:05:36.924Z,87.73
2022-09-28T07:08:06.327Z,86.10
2022-09-28T07:10:33.383Z,84.00
2022-09-28T07:13:04.110Z,84.38
2022-09-28T07:15:32.165Z,83.45
2022-09-28T07:18:03.123Z,83.25
2022-09-28T07:20:31.247Z,84.96
2022-09-28T07:23:10.092Z,84.59
2022-09-28T07:25:45.350Z,85.37
2022-09-28T07:28:12.255Z,85.13
2022-09-28T07:30:38.866Z,86.54
2022-09-28T07:33:07.294Z,85.37
2022-09-28T07:35:34.433Z,83.89
2022-09-28T07:38:10.807Z,85.32
2022-09-28T07:40:56.193Z,86.06
2022-09-28T07:43:22.685Z,85.28
2022-09-28T07:45:54.199Z,84.83
2022-09-28T07:48:21.667Z,83.74
2022-09-28T07:50:52.849Z,85.12
2022-09-28T07:53:20.331Z,84.10
2022-09-28T07:55:53.961Z,83.72
2022-09-28T07:58:20.748Z,81.06
2022-09-28T08:00:48.622Z,83.74
2022-09-28T08:03:19.439Z,84.62
2022-09-28T08:05:48.088Z,84.79
2022-09-28T08:08:15.455Z,83.95
2022-09-28T08:10:46.969Z,84.49
2022-09-28T08:13:15.252Z,83.68
2022-09-28T08:15:42.609Z,82.52
2022-09-28T08:18:09.872Z,83.44
2022-09-28T08:20:55.053Z,82.97
2022-09-28T08:23:21.892Z,83.62
2022-09-28T08:25:49.675Z,83.31
2022-09-28T08:28:17.709Z,82.30
2022-09-28T08:30:45.655Z,80.80
2022-09-28T08:33:13.585Z,81.42
2022-09-28T08:35:43.363Z,80.74
2022-09-28T08:38:10.914Z,80.63
2022-09-28T08:40:57.780Z,79.80
2022-09-28T08:43:42.854Z,79.89
2022-09-28T08:46:11.635Z,80.27
2022-09-28T08:52:00.373Z,80.04
2022-09-28T08:54:51.949Z,79.89
2022-09-28T08:57:34.016Z,80.73
2022-09-28T09:00:02.529Z,80.60
2022-09-28T09:02:33.511Z,80.73
2022-09-28T09:05:06.099Z,81.47
2022-09-28T09:08:23.471Z,81.59
2022-09-28T09:11:02.310Z,81.33
2022-09-28T09:14:27.211Z,81.18
2022-09-28T09:17:00.405Z,80.77
2022-09-28T09:19:45.884Z,80.77
2022-09-28T09:22:16.887Z,79.86
2022-09-28T09:24:51.965Z,80.38
2022-09-28T09:27:32.284Z,79.41
2022-09-28T09:30:19.401Z,80.50
2022-09-28T09:33:29.187Z,81.24
2022-09-28T09:36:37.853Z,80.84
2022-09-28T09:39:41.467Z,81.59
2022-09-28T09:42:43.809Z,81.44
2022-09-28T09:45:18.925Z,80.62
2022-09-28T09:47:53.397Z,80.92
2022-09-28T09:50:32.083Z,79.86
2022-09-28T09:53:29.376Z,80.72
2022-09-28T09:56:01.711Z,79.32
2022-09-28T09:58:35.736Z,79.17
2022-09-28T10:01:10.922Z,78.90
2022-09-28T10:03:42.304Z,77.86
2022-09-28T10:06:13.407Z,77.51
2022-09-28T10:08:46.156Z,76.45
2022-09-28T10:11:22.146Z,76.81
2022-09-28T10:13:49.216Z,75.56
2022-09-28T10:16:19.274Z,75.24
2022-09-28T10:18:45.835Z,76.46
2022-09-28T10:21:14.496Z,75.32
2022-09-28T10:23:42.528Z,74.94
2022-09-28T10:26:25.156Z,74.47
2022-09-28T10:29:01.668Z,74.89
2022-09-28T10:31:47.518Z,74.74
2022-09-28T10:34:15.587Z,73.88
2022-09-28T10:37:03.387Z,73.30
2022-09-28T10:39:33.660Z,72.14
2022-09-28T10:42:04.240Z,72.69
2022-09-28T10:44:34.343Z,71.29
2022-09-28T10:47:03.383Z,70.71
2022-09-28T10:49:46.843Z,70.68
2022-09-28T10:52:35.105Z,69.60
2022-09-28T10:55:02.398Z,70.54
2022-09-28T10:57:34.670Z,70.26
2022-09-28T11:00:02.754Z,70.07
2022-09-28T11:02:35.991Z,69.85
2022-09-28T11:05:05.846Z,69.33
2022-09-28T11:07:34.296Z,66.88
2022-09-28T11:10:01.926Z,65.51
2022-09-28T11:12:36.971Z,65.89
2022-09-28T11:15:07.568Z,65.14
2022-09-28T11:17:41.980Z,63.90
2022-09-28T11:20:28.262Z,64.20
2022-09-28T11:22:58.580Z,62.56
2022-09-28T11:25:29.720Z,61.60
2022-09-28T11:27:58.039Z,60.65
2022-09-28T11:30:49.906Z,59.82
2022-09-28T11:33:20.612Z,60.07
2022-09-28T11:35:57.350Z,58.79
2022-09-28T11:38:54.385Z,58.75
2022-09-28T11:41:49.095Z,58.29
2022-09-28T11:44:38.027Z,59.50
2022-09-28T11:47:17.663Z,58.54
2022-09-28T11:49:57.447Z,60.10
2022-09-28T11:52:32.377Z,57.00
2022-09-28T11:55:05.331Z,57.82
2022-09-28T11:57:38.359Z,56.43
2022-09-28T12:00:09.968Z,57.19
2022-09-28T12:02:42.640Z,57.04
2022-09-28T12:05:19.846Z,57.99
2022-09-28T12:07:54.311Z,58.12
2022-09-28T12:10:45.635Z,58.28
2022-09-28T12:13:18.806Z,57.72
2022-09-28T12:16:32.710Z,59.78
2022-09-28T12:21:36.310Z,60.40
2022-09-28T12:24:33.292Z,58.49
2022-09-28T12:27:23.964Z,59.55
2022-09-28T12:30:15.330Z,59.53
2022-09-28T12:33:00.565Z,59.62
2022-09-28T12:35:52.556Z,61.26
2022-09-28T12:38:34.146Z,61.34
2022-09-28T12:41:41.962Z,61.22
2022-09-28T12:44:40.859Z,61.10
2022-09-28T12:47:16.112Z,61.13
2022-09-28T12:53:12.376Z,60.97
2022-09-28T12:55:44.959Z,61.01
2022-09-28T12:58:36.454Z,60.67
2022-09-28T13:01:12.182Z,60.86
2022-09-28T13:03:47.588Z,60.51
2022-09-28T13:06:34.690Z,62.17
2022-09-28T13:09:25.077Z,61.74
2022-09-28T13:12:00.600Z,61.12
2022-09-28T13:14:45.102Z,61.89
2022-09-28T13:17:14.473Z,60.66
2022-09-28T13:19:57.775Z,61.15
2022-09-28T13:22:46.091Z,60.08
2022-09-28T13:25:21.990Z,60.49
2022-09-28T13:27:53.404Z,60.24
2022-09-28T13:30:20.130Z,59.98
2022-09-28T13:32:48.719Z,59.22
2022-09-28T13:35:20.234Z,61.22
2022-09-28T13:37:47.933Z,62.14
2022-09-28T13:40:14.775Z,63.45
2022-09-28T13:42:53.175Z,63.22
2022-09-28T13:45:53.821Z,63.30
2022-09-28T13:48:24.531Z,62.83
2022-09-28T13:51:05.050Z,61.51
2022-09-28T13:53:52.689Z,61.25
2022-09-28T13:56:32.676Z,61.97
2022-09-28T13:59:11.948Z,62.65
2022-09-28T14:01:51.579Z,63.88
2022-09-28T14:04:20.901Z,62.87
2022-09-28T14:07:10.580Z,61.98
2022-09-28T14:09:44.872Z,61.79
2022-09-28T14:12:30.102Z,60.66
2022-09-28T14:14:57.024Z,61.42
2022-09-28T14:17:30.365Z,60.84
2022-09-28T14:20:07.220Z,59.19
2022-09-28T14:22:53.258Z,60.94
2022-09-28T14:25:30.235Z,61.90
2022-09-28T14:28:38.315Z,61.73
2022-09-28T14:31:14.238Z,60.90
2022-09-28T14:33:42.985Z,61.72
2022-09-28T14:36:47.427Z,63.85
2022-09-28T14:39:52.398Z,61.66
2022-09-28T14:42:23.804Z,61.97
2022-09-28T14:45:06.100Z,61.72
2022-09-28T14:47:37.992Z,61.85
2022-09-28T14:50:24.669Z,61.56
2022-09-28T14:52:54.199Z,60.96
2022-09-28T14:55:31.902Z,62.78
2022-09-28T14:57:59.150Z,61.81
2022-09-28T15:00:30.336Z,62.24
2022-09-28T15:03:02.126Z,63.04
2022-09-28T15:05:30.861Z,63.74
2022-09-28T15:07:57.922Z,63.91
2022-09-28T15:10:33.552Z,63.09
2022-09-28T15:13:18.204Z,62.64
2022-09-28T15:15:50.421Z,64.06
2022-09-28T15:18:49.459Z,62.54
2022-09-28T15:21:16.419Z,64.07
2022-09-28T15:23:45.026Z,63.96
2022-09-28T15:26:32.335Z,63.81
2022-09-28T15:29:03.154Z,64.08
2022-09-28T15:31:35.522Z,64.58
2022-09-28T15:34:20.419Z,64.65
2022-09-28T15:36:47.200Z,64.38
2022-09-28T15:39:24.363Z,65.02
2022-09-28T15:41:51.235Z,65.80
2022-09-28T15:44:33.031Z,65.43
2022-09-28T15:47:10.796Z,64.86
2022-09-28T15:49:41.713Z,65.26
2022-09-28T15:52:23.515Z,64.81
2022-09-28T15:54:50.077Z,64.72
2022-09-28T15:57:39.968Z,64.35
2022-09-28T16:00:21.810Z,64.79
2022-09-28T16:03:21.023Z,63.94
2022-09-28T16:05:59.688Z,64.06
2022-09-28T16:08:45.772Z,64.22
2022-09-28T16:11:21.153Z,64.98
2022-09-28T16:14:08.861Z,63.94
2022-09-28T16:16:41.133Z,64.08
2022-09-28T16:19:24.084Z,64.02
2022-09-28T16:21:55.837Z,64.53
2022-09-28T16:24:25.438Z,65.06
2022-09-28T16:27:02.689Z,65.42
2022-09-28T16:29:44.953Z,66.34
2022-09-28T16:32:24.797Z,66.07
2022-09-28T16:35:12.637Z,66.28
2022-09-28T16:37:43.636Z,66.58
2022-09-28T16:40:12.101Z,66.84
2022-09-28T16:42:46.795Z,66.57
2022-09-28T16:45:29.983Z,67.31
2022-09-28T16:47:57.486Z,67.41
2022-09-28T16:50:25.333Z,67.23
2022-09-28T16:53:31.445Z,67.34
2022-09-28T16:55:59.687Z,68.03
2022-09-28T16:58:26.379Z,68.48
2022-09-28T17:00:54.632Z,68.98
2022-09-28T17:03:23.400Z,67.60
2022-09-28T17:05:51.080Z,67.57
2022-09-28T17:08:21.685Z,68.40
2022-09-28T17:11:16.610Z,69.19
2022-09-28T17:13:42.468Z,69.68
2022-09-28T17:16:15.277Z,69.59
2022-09-28T17:18:41.856Z,69.81
2022-09-28T17:21:18.162Z,69.84
2022-09-28T17:23:49.358Z,70.14
2022-09-28T17:26:30.650Z,70.12
2022-09-28T17:29:01.788Z,69.20
2022-09-28T17:31:29.853Z,69.66
2022-09-28T17:33:56.612Z,66.61
2022-09-28T17:36:23.626Z,67.11
2022-09-28T17:38:51.800Z,67.72
2022-09-28T17:41:20.847Z,68.26
2022-09-28T17:43:48.198Z,66.13
2022-09-28T17:46:26.942Z,67.12
2022-09-28T17:48:54.239Z,67.91
2022-09-28T17:51:22.161Z,68.70
2022-09-28T17:53:48.695Z,68.62
2022-09-28T17:56:15.376Z,69.19
2022-09-28T17:58:41.910Z,69.86
2022-09-28T18:01:09.371Z,70.74
2022-09-28T18:03:35.870Z,70.18
2022-09-28T18:06:06.568Z,69.50
2022-09-28T18:08:33.795Z,69.57
2022-09-28T18:11:01.654Z,69.62
2022-09-28T18:13:28.397Z,70.38
2022-09-28T18:15:56.119Z,69.95
2022-09-28T18:18:23.954Z,69.08
2022-09-28T18:20:51.385Z,69.55
2022-09-28T18:23:18.123Z,69.65
2022-09-28T18:25:46.175Z,70.38
2022-09-28T18:28:13.348Z,69.89
2022-09-28T18:30:42.715Z,70.06
2022-09-28T18:33:10.435Z,69.79
2022-09-28T18:35:37.214Z,70.79
2022-09-28T18:38:08.062Z,70.31
2022-09-28T18:40:35.794Z,70.69
2022-09-28T18:43:03.719Z,70.86
2022-09-28T18:45:30.194Z,70.71
2022-09-28T18:47:57.642Z,70.42
2022-09-28T18:50:24.138Z,69.55
2022-09-28T18:52:50.672Z,69.61
2022-09-28T18:55:17.188Z,69.97
2022-09-28T18:57:44.689Z,69.67
2022-09-28T19:00:12.406Z,69.68
2022-09-28T19:02:39.235Z,68.97
2022-09-28T19:05:06.533Z,69.35
2022-09-28T19:07:33.955Z,69.86
2022-09-28T19:10:00.463Z,69.50
2022-09-28T19:12:26.968Z,69.84
2022-09-28T19:14:53.499Z,69.93
2022-09-28T19:17:20.049Z,69.09
2022-09-28T19:19:46.597Z,69.40
2022-09-28T19:22:13.132Z,68.52
2022-09-28T19:24:39.689Z,69.56
2022-09-28T19:27:06.269Z,69.34
2022-09-28T19:29:32.778Z,68.97
2022-09-28T19:31:59.198Z,69.02
2022-09-28T19:34:29.865Z,69.58
2022-09-28T19:36:56.967Z,69.97
2022-09-28T19:39:23.463Z,70.10
2022-09-28T19:41:51.315Z,68.18
2022-09-28T19:44:29.015Z,68.23
2022-09-28T19:46:56.711Z,68.96
2022-09-28T19:49:24.891Z,68.93
2022-09-28T19:52:14.937Z,69.52
2022-09-28T19:55:00.237Z,68.24
2022-09-28T19:57:32.563Z,67.60
2022-09-28T20:00:03.194Z,68.51
2022-09-28T20:02:30.173Z,68.46
2022-09-28T20:04:56.686Z,68.65
2022-09-28T20:07:23.172Z,68.49
2022-09-28T20:09:49.639Z,68.64
2022-09-28T20:12:16.148Z,68.54
2022-09-28T20:14:42.888Z,69.26
2022-09-28T20:17:09.616Z,69.45
2022-09-28T20:19:36.194Z,69.52
2022-09-28T20:22:02.996Z,69.13
2022-09-28T20:24:31.142Z,69.24
2022-09-28T20:26:58.067Z,69.48
2022-09-28T20:29:24.934Z,69.77
2022-09-28T20:31:51.938Z,70.96
2022-09-28T20:34:18.698Z,69.63
2022-09-28T20:36:45.230Z,71.01
2022-09-28T20:39:12.342Z,72.26
2022-09-28T20:41:39.029Z,72.13
2022-09-28T20:44:06.662Z,71.40
2022-09-28T20:46:37.311Z,70.70
2022-09-28T20:49:05.226Z,69.01
2022-09-28T20:51:32.366Z,69.41
2022-09-28T20:53:59.410Z,69.91
2022-09-28T20:56:28.475Z,70.08
2022-09-28T20:58:55.788Z,70.37
2022-09-28T21:01:27.620Z,70.31
2022-09-28T21:03:55.419Z,70.11
2022-09-28T21:06:25.306Z,70.78
2022-09-28T21:08:52.281Z,71.48
2022-09-28T21:11:21.439Z,71.49
2022-09-28T21:13:51.431Z,71.84
2022-09-28T21:16:18.135Z,72.29
2022-09-28T21:18:45.170Z,73.31
2022-09-28T21:21:13.735Z,72.61
2022-09-28T21:23:40.754Z,73.00
2022-09-28T21:26:25.010Z,74.29
2022-09-28T21:29:06.261Z,73.47
2022-09-28T21:31:37.366Z,74.22
2022-09-28T21:34:04.812Z,73.36
2022-09-28T21:36:31.784Z,73.60
2022-09-28T21:38:58.323Z,73.79
2022-09-28T21:41:25.432Z,74.55
2022-09-28T21:43:52.470Z,73.81
2022-09-28T21:46:19.027Z,74.79
2022-09-28T21:48:45.548Z,74.74
2022-09-28T21:51:15.799Z,74.37
2022-09-28T21:53:42.882Z,74.59
2022-09-28T21:56:11.807Z,75.50
2022-09-28T21:58:40.062Z,75.93
2022-09-28T22:01:15.437Z,76.05
2022-09-28T22:03:44.063Z,76.71
2022-09-28T22:06:11.463Z,77.99
2022-09-28T22:08:38.765Z,77.49
2022-09-28T22:11:13.645Z,78.11
2022-09-28T22:13:45.782Z,77.87
2022-09-28T22:16:14.247Z,77.89
2022-09-28T22:18:41.272Z,77.79
2022-09-28T22:21:15.368Z,77.85
2022-09-28T22:23:42.439Z,78.20
2022-09-28T22:26:17.902Z,78.68
2022-09-28T22:28:47.019Z,78.93
2022-09-28T22:31:15.008Z,80.19
2022-09-28T22:33:41.748Z,79.74
2022-09-28T22:36:08.328Z,80.85
2022-09-28T22:38:35.375Z,82.11
2022-09-28T22:41:03.830Z,82.92
2022-09-28T22:43:30.985Z,83.41
2022-09-28T22:46:05.293Z,84.96
2022-09-28T22:48:32.532Z,84.68
2022-09-28T22:50:59.534Z,85.62
2022-09-28T22:53:26.315Z,86.34
2022-09-28T22:55:52.835Z,88.35
2022-09-28T22:58:19.293Z,86.02
2022-09-28T23:00:45.762Z,85.05
2022-09-28T23:03:12.375Z,86.70
2022-09-28T23:05:38.914Z,85.88
2022-09-28T23:08:05.400Z,88.26
2022-09-28T23:10:32.592Z,88.90
2022-09-28T23:13:00.110Z,89.42
2022-09-28T23:15:27.869Z,90.05
2022-09-28T23:17:55.118Z,89.71
2022-09-28T23:20:22.035Z,89.77
2022-09-28T23:22:49.282Z,91.03
2022-09-28T23:25:17.172Z,89.37
2022-09-28T23:27:47.837Z,89.61
2022-09-28T23:30:16.130Z,89.28
2022-09-28T23:32:42.661Z,91.28
2022-09-28T23:35:10.024Z,90.42
2022-09-28T23:37:37.597Z,92.50
2022-09-28T23:40:06.287Z,91.75
2022-09-28T23:42:34.714Z,92.34
2022-09-28T23:45:01.150Z,90.44
2022-09-28T23:47:27.630Z,89.90
2022-09-28T23:49:54.061Z,90.66
2022-09-28T23:52:20.527Z,88.85
2022-09-28T23:54:47.113Z,89.51
2022-09-28T23:57:13.613Z,91.33
2022-09-28T23:59:40.130Z,90.46
